createdAt,value
2019-02-11T00:03:05.604Z,1.06
2019-02-11T00:08:12.731Z,1.01
2019-02-11T00:13:19.862Z,1.18
2019-02-11T00:18:27.018Z,1.17
2019-02-11T00:23:34.122Z,1.20
2019-02-11T00:28:41.366Z,1.09
2019-02-11T00:33:48.399Z,1.05
2019-02-11T00:38:55.529Z,1.07
2019-02-11T00:44:02.670Z,1.20
2019-02-11T00:49:09.809Z,1.28
2019-02-11T00:54:16.946Z,1.34
2019-02-11T00:59:24.087Z,1.32
2019-02-11T01:04:31.259Z,1.54
2019-02-11T01:09:38.407Z,1.53
2019-02-11T01:14:45.523Z,1.61
2019-02-11T01:19:52.868Z,1.63
2019-02-11T01:25:00.006Z,1.89
2019-02-11T01:30:07.125Z,1.98
2019-02-11T01:35:14.282Z,1.97
2019-02-11T01:40:21.430Z,1.87
2019-02-11T01:45:28.566Z,1.84
2019-02-11T01:50:35.692Z,1.94
2019-02-11T01:55:42.860Z,2.04
2019-02-11T02:00:50.029Z,2.14
2019-02-11T02:05:57.401Z,2.73
2019-02-11T02:11:04.817Z,2.50
2019-02-11T02:16:11.963Z,2.33
2019-02-11T02:21:19.131Z,2.28
2019-02-11T02:26:26.262Z,2.18
2019-02-11T02:31:33.501Z,2.18
2019-02-11T02:36:40.643Z,2.44
2019-02-11T02:41:47.806Z,2.61
2019-02-11T02:46:54.990Z,3.01
2019-02-11T02:52:02.254Z,3.82
2019-02-11T02:57:09.396Z,4.02
2019-02-11T03:02:16.581Z,4.31
2019-02-11T03:07:23.752Z,4.60
2019-02-11T03:12:30.884Z,5.34
2019-02-11T03:17:38.003Z,5.31
2019-02-11T03:22:45.126Z,5.89
2019-02-11T03:27:52.307Z,5.91
2019-02-11T03:32:59.434Z,6.16
2019-02-11T03:38:06.602Z,5.85
2019-02-11T03:43:13.749Z,5.88
2019-02-11T03:48:20.890Z,5.94
2019-02-11T03:53:28.120Z,5.54
2019-02-11T03:58:35.280Z,5.06
2019-02-11T04:03:42.418Z,4.07
2019-02-11T04:08:49.509Z,4.14
2019-02-11T04:13:56.619Z,4.30
2019-02-11T04:19:03.951Z,4.51
2019-02-11T04:24:11.078Z,5.08
2019-02-11T04:29:18.202Z,5.48
2019-02-11T04:34:25.330Z,5.99
2019-02-11T04:39:32.407Z,6.72
2019-02-11T04:44:39.475Z,7.50
2019-02-11T04:49:46.607Z,8.71
2019-02-11T04:54:53.970Z,8.91
2019-02-11T05:00:01.148Z,9.39
2019-02-11T05:05:08.226Z,9.10
2019-02-11T05:10:15.313Z,9.43
2019-02-11T05:15:22.687Z,9.43
2019-02-11T05:20:29.796Z,9.12
2019-02-11T05:25:36.987Z,8.56
2019-02-11T05:30:44.313Z,8.06
2019-02-11T05:35:51.432Z,6.93
2019-02-11T05:40:58.689Z,7.05
2019-02-11T05:46:05.773Z,6.43
2019-02-11T05:51:12.887Z,6.15
2019-02-11T05:56:19.966Z,6.02
2019-02-11T06:01:27.035Z,6.31
2019-02-11T06:06:34.536Z,6.78
2019-02-11T06:11:41.634Z,6.93
2019-02-11T06:16:48.751Z,7.58
2019-02-11T06:21:55.874Z,7.33
2019-02-11T06:27:03.048Z,7.77
2019-02-11T06:32:10.119Z,7.41
2019-02-11T06:37:17.191Z,6.52
2019-02-11T06:42:24.286Z,6.43
2019-02-11T06:47:31.391Z,6.07
2019-02-11T06:52:38.476Z,6.16
2019-02-11T06:57:45.557Z,6.14
2019-02-11T07:02:52.688Z,6.56
2019-02-11T07:07:59.791Z,6.58
2019-02-11T07:13:06.883Z,6.81
2019-02-11T07:18:13.963Z,6.28
2019-02-11T07:23:21.035Z,6.37
2019-02-11T07:28:28.158Z,6.01
2019-02-11T07:33:35.272Z,5.97
2019-02-11T07:38:42.352Z,5.96
2019-02-11T07:43:49.681Z,6.74
2019-02-11T07:48:56.853Z,6.22
2019-02-11T07:54:03.925Z,5.80
2019-02-11T07:59:11.055Z,5.87
2019-02-11T08:04:18.144Z,5.98
2019-02-11T08:09:25.227Z,6.41
2019-02-11T08:14:35.071Z,6.35
2019-02-11T08:19:43.165Z,6.77
2019-02-11T08:24:52.261Z,7.12
2019-02-11T08:30:02.299Z,7.29
2019-02-11T08:35:12.314Z,7.63
2019-02-11T08:40:10.673Z,8.26
2019-02-11T08:45:17.827Z,8.88
2019-02-11T08:50:24.903Z,9.00
2019-02-11T08:55:32.216Z,8.48
2019-02-11T09:00:39.333Z,8.25
2019-02-11T09:05:46.790Z,7.89
2019-02-11T09:10:54.274Z,7.91
2019-02-11T09:16:01.507Z,8.19
2019-02-11T09:21:08.620Z,8.20
2019-02-11T09:26:16.100Z,8.01
2019-02-11T09:31:23.895Z,8.33
2019-02-11T09:36:32.270Z,7.76
2019-02-11T09:41:39.598Z,7.45
2019-02-11T09:46:46.824Z,6.85
2019-02-11T09:51:55.534Z,6.99
2019-02-11T09:57:02.727Z,6.84
2019-02-11T10:02:09.961Z,6.82
2019-02-11T10:07:17.102Z,6.31
2019-02-11T10:12:24.184Z,6.46
2019-02-11T10:17:33.929Z,6.18
2019-02-11T10:22:42.937Z,6.50
2019-02-11T10:27:52.638Z,7.04
2019-02-11T10:33:01.339Z,6.02
2019-02-11T10:38:08.594Z,6.29
2019-02-11T10:43:15.689Z,6.04
2019-02-11T10:48:22.797Z,6.35
2019-02-11T10:53:30.025Z,6.40
2019-02-11T10:58:37.135Z,5.06
2019-02-11T11:03:44.240Z,4.98
2019-02-11T11:08:51.323Z,4.00
2019-02-11T11:13:58.627Z,3.83
2019-02-11T11:19:05.962Z,4.15
2019-02-11T11:24:13.043Z,3.96
2019-02-11T11:29:20.130Z,4.51
2019-02-11T11:34:27.495Z,4.39
2019-02-11T11:39:34.557Z,4.50
2019-02-11T11:44:42.312Z,4.71
2019-02-11T11:49:49.639Z,4.98
2019-02-11T11:54:56.812Z,4.74
2019-02-11T12:00:03.941Z,4.68
2019-02-11T12:05:11.015Z,5.16
2019-02-11T12:10:18.082Z,5.23
2019-02-11T12:15:25.184Z,5.18
2019-02-11T12:20:33.620Z,4.74
2019-02-11T12:25:38.874Z,4.67
2019-02-11T12:30:45.984Z,4.67
2019-02-11T12:35:53.058Z,4.63
2019-02-11T12:41:00.157Z,4.09
2019-02-11T12:46:07.273Z,3.93
2019-02-11T12:51:14.389Z,4.34
2019-02-11T12:56:21.470Z,4.40
2019-02-11T13:01:28.596Z,4.00
2019-02-11T13:06:35.670Z,3.71
2019-02-11T13:11:42.774Z,2.79
2019-02-11T13:16:49.881Z,2.48
2019-02-11T13:21:57.014Z,2.31
2019-02-11T13:27:04.093Z,2.12
2019-02-11T13:32:11.216Z,2.04
2019-02-11T13:37:18.489Z,2.39
2019-02-11T13:42:25.776Z,2.41
2019-02-11T13:47:50.755Z,2.38
2019-02-11T13:52:39.822Z,2.52
2019-02-11T13:57:46.945Z,2.16
2019-02-11T14:02:54.237Z,1.91
2019-02-11T14:08:01.621Z,2.36
2019-02-11T14:13:10.996Z,2.34
2019-02-11T14:18:18.839Z,1.92
2019-02-11T14:23:25.941Z,2.41
2019-02-11T14:28:33.216Z,2.31
2019-02-11T14:33:40.341Z,2.24
2019-02-11T14:38:47.564Z,2.39
2019-02-11T14:43:54.957Z,2.45
2019-02-11T14:49:02.276Z,2.53
2019-02-11T14:54:09.976Z,2.37
2019-02-11T14:59:17.073Z,2.66
2019-02-11T15:04:23.511Z,3.14
2019-02-11T15:09:30.595Z,2.91
2019-02-11T15:14:37.709Z,2.99
2019-02-11T15:19:44.795Z,3.01
2019-02-11T15:24:52.155Z,3.01
2019-02-11T15:29:59.608Z,2.87
2019-02-11T15:35:06.903Z,3.19
2019-02-11T15:40:14.429Z,3.37
2019-02-11T15:45:22.899Z,3.69
2019-02-11T15:50:31.169Z,3.60
2019-02-11T15:55:38.292Z,3.41
2019-02-11T16:00:45.365Z,3.35
2019-02-11T16:05:52.672Z,3.26
2019-02-11T16:11:01.412Z,3.11
2019-02-11T16:16:06.460Z,2.65
2019-02-11T16:21:13.581Z,3.11
2019-02-11T16:26:20.765Z,2.75
2019-02-11T16:31:28.270Z,2.95
2019-02-11T16:36:35.709Z,3.47
2019-02-11T16:41:42.806Z,4.03
2019-02-11T16:46:50.358Z,5.54
2019-02-11T16:51:57.582Z,5.18
2019-02-11T16:57:04.751Z,4.33
2019-02-11T17:02:12.033Z,4.30
2019-02-11T17:07:19.157Z,3.88
2019-02-11T17:12:26.244Z,6.15
2019-02-11T17:17:33.380Z,6.61
2019-02-11T17:22:40.553Z,7.68
2019-02-11T17:27:47.665Z,7.75
2019-02-11T17:32:54.823Z,4.51
2019-02-11T17:38:02.335Z,4.03
2019-02-11T17:43:09.419Z,4.98
2019-02-11T17:48:16.517Z,4.85
2019-02-11T17:53:23.707Z,4.09
2019-02-11T17:58:30.844Z,4.09
2019-02-11T18:03:37.961Z,4.42
2019-02-11T18:08:45.432Z,4.11
2019-02-11T18:13:53.765Z,3.37
2019-02-11T18:19:00.851Z,3.18
2019-02-11T18:24:07.977Z,2.58
2019-02-11T18:29:15.108Z,2.57
2019-02-11T18:34:22.442Z,2.68
2019-02-11T18:39:29.568Z,2.73
2019-02-11T18:44:36.669Z,2.71
2019-02-11T18:49:43.925Z,2.92
2019-02-11T18:54:51.007Z,3.05
2019-02-11T18:59:58.112Z,3.00
2019-02-11T19:05:05.364Z,2.81
2019-02-11T19:10:12.617Z,2.82
2019-02-11T19:15:19.886Z,2.73
2019-02-11T19:20:26.952Z,2.98
2019-02-11T19:25:34.101Z,2.71
2019-02-11T19:30:41.213Z,2.95
2019-02-11T19:35:48.360Z,2.75
2019-02-11T19:40:55.478Z,2.75
2019-02-11T19:46:04.030Z,3.11
2019-02-11T19:51:11.146Z,3.41
2019-02-11T19:56:18.390Z,2.98
2019-02-11T20:01:25.559Z,3.60
2019-02-11T20:06:33.170Z,3.36
2019-02-11T20:11:40.820Z,4.35
2019-02-11T20:16:48.258Z,5.70
2019-02-11T20:21:56.003Z,7.56
2019-02-11T20:27:03.365Z,6.23
2019-02-11T20:32:10.499Z,4.51
2019-02-11T20:37:18.364Z,4.21
2019-02-11T20:42:25.646Z,4.62
2019-02-11T20:47:33.078Z,5.62
2019-02-11T20:52:41.024Z,6.58
2019-02-11T20:57:48.802Z,6.88
2019-02-11T21:02:55.988Z,6.20
2019-02-11T21:08:04.276Z,5.71
2019-02-11T21:13:11.823Z,5.65
2019-02-11T21:18:19.833Z,5.10
2019-02-11T21:23:26.978Z,5.26
2019-02-11T21:28:34.159Z,4.75
2019-02-11T21:33:42.570Z,5.08
2019-02-11T21:38:49.717Z,5.29
2019-02-11T21:43:56.871Z,5.93
2019-02-11T21:49:03.996Z,7.17
2019-02-11T21:54:11.585Z,6.92
2019-02-11T21:59:18.694Z,6.09
2019-02-11T22:04:25.784Z,5.62
2019-02-11T22:09:32.888Z,6.73
2019-02-11T22:14:39.954Z,5.79
2019-02-11T22:19:47.027Z,5.46
2019-02-11T22:24:56.346Z,5.69
2019-02-11T22:30:01.086Z,5.84
2019-02-11T22:35:08.202Z,5.85
2019-02-11T22:40:15.292Z,4.81
2019-02-11T22:45:22.416Z,4.14
2019-02-11T22:50:29.529Z,4.06
2019-02-11T22:55:36.656Z,5.21
2019-02-11T23:00:43.764Z,5.43
2019-02-11T23:05:50.866Z,6.21
2019-02-11T23:10:57.999Z,7.68
2019-02-11T23:16:05.141Z,7.09
2019-02-11T23:21:12.232Z,9.40
2019-02-11T23:26:19.419Z,7.49
2019-02-11T23:31:26.496Z,6.62
2019-02-11T23:36:33.593Z,5.12
2019-02-11T23:41:40.698Z,5.15
2019-02-11T23:46:48.115Z,4.83
2019-02-11T23:51:57.407Z,4.69
2019-02-11T23:57:04.489Z,4.51
